Time;durP1;ratioP1;P1;durP2;ratioP2;P2;SDS_P1;SDS_P2;PMS_P1;PMS_P2;Temp;Humidity;BMP_temperature;BMP_pressure;BME280_temperature;BME280_humidity;BME280_pressure;Samples;Min_cycle;Max_cycle;Signal;HPM_P1;HPM_P2
2023/05/04 00:02:23;;;;;;;14.93;12.02;;;;;;;11.45;55.00;102116.66;5094659;28;20028;-65
2023/05/04 00:04:52;;;;;;;14.05;12.23;;;;;;;11.38;55.29;102118.72;5093537;28;20062;-65
2023/05/04 00:07:18;;;;;;;12.57;11.07;;;;;;;11.37;54.91;102117.00;5093869;28;20039;-65
2023/05/04 00:09:43;;;;;;;15.00;12.13;;;;;;;11.41;54.71;102115.03;5094615;28;20062;-65
2023/05/04 00:12:10;;;;;;;15.63;11.90;;;;;;;11.54;54.38;102106.41;5097548;28;20456;-65
2023/05/04 00:14:36;;;;;;;15.07;12.30;;;;;;;11.52;54.38;102107.41;5110368;28;20035;-64
2023/05/04 00:17:05;;;;;;;13.98;12.65;;;;;;;11.36;54.31;102097.47;5112765;28;20024;-65
2023/05/04 00:19:34;;;;;;;13.85;11.93;;;;;;;11.40;55.07;102092.88;5100494;28;20054;-65
2023/05/04 00:22:02;;;;;;;13.90;12.50;;;;;;;11.39;54.96;102092.97;5092477;28;20030;-65
2023/05/04 00:24:27;;;;;;;13.60;12.15;;;;;;;11.30;54.95;102086.25;5094305;28;20098;-65
2023/05/04 00:26:53;;;;;;;13.50;12.20;;;;;;;11.33;54.94;102075.47;5093099;28;20126;-64
2023/05/04 00:29:18;;;;;;;13.65;11.98;;;;;;;11.30;55.04;102071.13;5092569;28;20039;-65
2023/05/04 00:31:44;;;;;;;15.50;11.43;;;;;;;11.32;54.93;102071.94;5093860;28;20039;-65
2023/05/04 00:34:09;;;;;;;13.05;11.65;;;;;;;11.27;54.96;102070.41;5094211;28;20152;-65
2023/05/04 00:36:35;;;;;;;13.20;11.88;;;;;;;11.26;54.85;102071.34;5092062;28;20489;-64
2023/05/04 00:39:00;;;;;;;13.98;12.23;;;;;;;11.14;55.26;102067.44;5093969;28;20020;-64
2023/05/04 00:41:25;;;;;;;14.65;11.90;;;;;;;11.12;55.81;102067.53;5092397;28;20031;-64
2023/05/04 00:43:51;;;;;;;15.00;11.98;;;;;;;11.06;55.46;102053.59;5092677;28;20039;-64
2023/05/04 00:46:17;;;;;;;14.18;12.20;;;;;;;11.02;55.10;102066.19;5093387;28;20020;-65
2023/05/04 00:48:47;;;;;;;16.10;12.27;;;;;;;11.13;55.67;102071.91;5092514;28;20094;-65
2023/05/04 00:51:15;;;;;;;12.52;11.23;;;;;;;11.17;55.54;102064.63;5091622;28;20024;-65
2023/05/04 00:53:41;;;;;;;13.05;11.40;;;;;;;11.25;55.12;102064.28;5093920;28;20038;-64
2023/05/04 00:56:10;;;;;;;12.30;11.10;;;;;;;11.07;55.80;102055.34;5093375;28;20442;-65
2023/05/04 00:58:36;;;;;;;12.43;11.15;;;;;;;11.02;56.16;102052.88;5093689;28;20024;-65
2023/05/04 01:01:03;;;;;;;12.75;11.15;;;;;;;11.11;55.49;102063.13;5092125;28;20093;-65
2023/05/04 01:03:30;;;;;;;15.48;11.65;;;;;;;11.18;56.00;102057.50;5092222;28;20028;-64
2023/05/04 01:06:28;;;;;;;12.95;11.65;;;;;;;11.09;55.81;102065.00;5093257;28;20394;-65
2023/05/04 01:09:01;;;;;;;12.85;11.27;;;;;;;11.08;56.23;102057.06;5088231;28;20149;-65
2023/05/04 01:11:35;;;;;;;12.18;11.07;;;;;;;11.06;55.86;102059.81;5093176;28;20027;-65
2023/05/04 01:14:02;;;;;;;13.30;11.30;;;;;;;10.88;56.46;102049.97;5093333;28;20028;-64
2023/05/04 01:16:28;;;;;;;12.63;11.25;;;;;;;10.96;56.16;102045.19;5093221;28;20115;-64
2023/05/04 01:18:53;;;;;;;13.07;11.80;;;;;;;11.04;56.18;102037.72;5091927;28;20019;-65
2023/05/04 01:21:19;;;;;;;12.57;11.32;;;;;;;10.88;56.82;102036.69;5092443;28;20031;-65
2023/05/04 01:23:44;;;;;;;14.43;11.82;;;;;;;10.72;56.53;102041.84;5093074;28;20024;-65
2023/05/04 01:26:16;;;;;;;13.35;11.20;;;;;;;10.65;57.56;102033.28;5091744;28;20031;-64
2023/05/04 01:28:44;;;;;;;12.20;10.82;;;;;;;10.61;57.37;102025.47;5093141;28;20098;-65
2023/05/04 01:31:14;;;;;;;14.30;11.80;;;;;;;10.45;58.08;102042.13;5091464;28;20515;-65
2023/05/04 01:33:40;;;;;;;11.27;10.02;;;;;;;10.52;57.71;102032.06;5091497;28;20044;-65
2023/05/04 01:36:06;;;;;;;15.65;12.60;;;;;;;10.37;58.53;102038.91;5091135;28;20078;-65
2023/05/04 01:38:32;;;;;;;13.40;11.02;;;;;;;10.63;57.67;102028.94;5091507;28;20486;-65
2023/05/04 01:40:57;;;;;;;13.48;11.73;;;;;;;10.56;57.75;102041.66;5092696;28;20557;-65
2023/05/04 01:43:23;;;;;;;13.75;11.30;;;;;;;10.64;57.53;102030.66;5092621;28;20026;-65
2023/05/04 01:45:48;;;;;;;14.35;11.38;;;;;;;10.59;57.76;102027.34;5092732;28;20088;-64
2023/05/04 01:48:14;;;;;;;12.98;11.63;;;;;;;10.60;57.57;102031.75;5092509;28;20472;-65
2023/05/04 01:50:39;;;;;;;14.02;11.07;;;;;;;10.54;57.31;102030.22;5092469;28;20032;-64
2023/05/04 01:53:07;;;;;;;13.25;11.85;;;;;;;10.46;58.13;102024.34;5091989;28;20467;-65
2023/05/04 01:55:33;;;;;;;14.80;11.32;;;;;;;10.42;58.17;102033.41;5090967;28;20035;-65
2023/05/04 01:58:00;;;;;;;14.60;11.65;;;;;;;10.48;58.10;102030.47;5092391;28;20027;-64
2023/05/04 02:00:27;;;;;;;16.67;11.38;;;;;;;10.40;58.41;102035.25;5092413;28;20024;-65
2023/05/04 02:02:54;;;;;;;13.25;11.38;;;;;;;10.39;58.38;102034.41;5092081;28;20024;-65
2023/05/04 02:05:20;;;;;;;12.75;11.55;;;;;;;10.33;59.25;102032.00;5092808;28;20043;-65
2023/05/04 02:07:45;;;;;;;15.65;12.10;;;;;;;10.49;59.04;102034.00;5090448;28;20024;-65
2023/05/04 02:10:11;;;;;;;13.68;11.77;;;;;;;10.50;58.44;102030.41;5092483;28;20059;-64
2023/05/04 02:12:36;;;;;;;14.05;12.00;;;;;;;10.33;59.02;102040.00;5090538;28;20028;-65
2023/05/04 02:15:05;;;;;;;12.38;11.15;;;;;;;10.33;59.23;102020.50;5091498;28;20197;-65
2023/05/04 02:17:30;;;;;;;13.93;11.10;;;;;;;10.41;59.00;102034.31;5109690;28;20027;-65
2023/05/04 02:19:55;;;;;;;18.50;11.77;;;;;;;10.28;59.30;102030.47;5111453;28;20540;-65
2023/05/04 02:22:21;;;;;;;15.57;11.98;;;;;;;10.19;59.16;102029.91;5108536;28;20055;-64
2023/05/04 02:24:46;;;;;;;14.07;12.15;;;;;;;10.26;59.29;102027.84;5111234;28;20031;-65
2023/05/04 02:27:14;;;;;;;15.82;11.98;;;;;;;10.33;59.02;102021.38;5111645;28;20085;-65
2023/05/04 02:29:39;;;;;;;12.48;11.23;;;;;;;10.22;59.30;102013.81;5108116;28;20024;-65
2023/05/04 02:32:05;;;;;;;16.27;12.85;;;;;;;10.03;59.79;102004.91;5110631;28;20071;-65
2023/05/04 02:34:30;;;;;;;13.75;12.13;;;;;;;10.06;60.04;102003.88;5111032;28;20031;-64
2023/05/04 02:36:55;;;;;;;15.77;12.77;;;;;;;9.94;60.41;102011.47;5110714;28;20173;-65
2023/05/04 02:39:23;;;;;;;14.23;12.65;;;;;;;10.05;59.83;102016.31;5108771;28;20425;-65
2023/05/04 02:41:48;;;;;;;12.75;11.45;;;;;;;9.96;60.16;102014.91;5111105;28;20042;-65
2023/05/04 02:44:16;;;;;;;13.32;11.93;;;;;;;9.86;60.43;102004.75;5112283;28;20416;-65
2023/05/04 02:46:41;;;;;;;17.50;12.77;;;;;;;10.02;60.52;102013.78;5101864;28;20620;-65
2023/05/04 02:49:07;;;;;;;14.85;12.93;;;;;;;9.96;60.19;102009.59;5109855;28;20024;-65
2023/05/04 02:51:32;;;;;;;15.52;12.85;;;;;;;10.05;60.17;102008.34;5107422;28;20032;-64
2023/05/04 02:54:00;;;;;;;13.43;11.95;;;;;;;9.92;60.29;102005.34;5110398;28;20020;-65
2023/05/04 02:56:25;;;;;;;15.18;12.38;;;;;;;9.74;60.91;102006.13;5110843;28;20106;-65
2023/05/04 02:58:51;;;;;;;12.55;11.40;;;;;;;9.88;61.04;102006.41;5109162;28;20145;-65
2023/05/04 03:01:16;;;;;;;15.80;12.70;;;;;;;9.61;61.55;102013.69;5108297;28;20367;-65
2023/05/04 03:03:41;;;;;;;13.95;12.48;;;;;;;9.73;61.41;102017.66;5109883;28;20024;-65
2023/05/04 03:06:07;;;;;;;13.90;12.55;;;;;;;9.88;60.96;102010.84;5093719;28;20019;-65
2023/05/04 03:08:32;;;;;;;15.00;12.45;;;;;;;9.66;61.78;102006.41;5116321;28;20457;-65
2023/05/04 03:10:57;;;;;;;13.82;12.43;;;;;;;9.89;61.01;102017.91;5114821;28;20046;-65
2023/05/04 03:13:23;;;;;;;16.95;12.27;;;;;;;9.75;61.63;102010.50;5112317;28;20020;-65
2023/05/04 03:15:51;;;;;;;13.70;12.45;;;;;;;9.63;62.04;102009.19;5114497;28;20035;-64
2023/05/04 03:18:16;;;;;;;15.00;13.00;;;;;;;9.71;61.50;101996.47;5113546;28;20027;-64
2023/05/04 03:20:41;;;;;;;14.15;12.63;;;;;;;9.71;61.57;102000.94;5111529;28;20363;-65
2023/05/04 03:23:11;;;;;;;14.52;13.07;;;;;;;9.57;62.33;102005.94;5113055;28;20103;-65
2023/05/04 03:25:37;;;;;;;15.15;13.38;;;;;;;9.65;62.04;102002.03;5113578;28;20490;-65
2023/05/04 03:28:02;;;;;;;14.27;12.93;;;;;;;9.67;62.27;101994.00;5113216;28;20034;-64
2023/05/04 03:30:30;;;;;;;15.98;13.25;;;;;;;9.71;61.80;101991.16;5098432;28;20031;-64
2023/05/04 03:32:58;;;;;;;15.23;12.95;;;;;;;9.74;62.20;101985.72;5095028;28;20040;-64
2023/05/04 03:35:24;;;;;;;16.88;12.57;;;;;;;9.58;62.54;101981.09;5093711;28;20027;-65
2023/05/04 03:37:52;;;;;;;14.15;12.68;;;;;;;9.52;62.85;101992.81;5093427;28;20478;-65
2023/05/04 03:40:21;;;;;;;14.75;13.25;;;;;;;9.36;62.93;101981.97;5095256;28;20073;-64
2023/05/04 03:42:47;;;;;;;16.60;13.40;;;;;;;9.38;63.28;101977.44;5095165;28;20024;-65
2023/05/04 03:45:12;;;;;;;13.73;12.25;;;;;;;9.36;63.66;101974.00;5093555;28;20031;-64
2023/05/04 03:47:37;;;;;;;13.98;12.57;;;;;;;9.48;62.77;101970.84;5094915;28;20028;-64
2023/05/04 03:50:03;;;;;;;15.43;13.50;;;;;;;9.41;63.26;101972.03;5095586;28;20161;-64
2023/05/04 03:52:28;;;;;;;16.73;12.80;;;;;;;9.35;63.18;101974.91;5094694;28;20422;-64
2023/05/04 03:54:54;;;;;;;15.05;13.23;;;;;;;9.34;63.28;101967.88;5094891;28;20111;-65
2023/05/04 03:57:21;;;;;;;14.63;13.05;;;;;;;9.37;63.41;101970.41;5093401;28;20023;-64
2023/05/04 03:59:46;;;;;;;15.55;13.40;;;;;;;9.23;64.06;101968.28;5093354;28;20032;-64
2023/05/04 04:02:17;;;;;;;14.90;13.23;;;;;;;9.12;64.34;101961.66;5093559;28;20024;-65
2023/05/04 04:04:42;;;;;;;14.70;13.30;;;;;;;9.15;64.30;101974.81;5094617;28;20099;-66
2023/05/04 04:07:07;;;;;;;16.10;13.55;;;;;;;9.23;64.27;101973.59;5094336;28;20157;-64
2023/05/04 04:09:33;;;;;;;14.73;13.30;;;;;;;9.23;64.75;101972.75;5093286;28;20477;-64
2023/05/04 04:11:58;;;;;;;15.38;13.70;;;;;;;9.17;64.80;101984.47;5094128;28;20020;-64
2023/05/04 04:14:24;;;;;;;14.20;12.80;;;;;;;9.33;64.08;101974.13;5093744;28;20518;-65
2023/05/04 04:16:49;;;;;;;15.18;13.77;;;;;;;9.22;64.23;101965.72;5093052;28;20111;-65
2023/05/04 04:19:17;;;;;;;14.93;13.43;;;;;;;9.36;63.74;101967.84;5094390;28;20024;-64
2023/05/04 04:21:44;;;;;;;14.80;13.27;;;;;;;9.15;64.82;101970.41;5092591;28;20035;-64
2023/05/04 04:24:10;;;;;;;15.23;13.68;;;;;;;9.07;65.48;101969.84;5094396;28;20186;-64
2023/05/04 04:26:35;;;;;;;14.65;13.15;;;;;;;9.09;64.74;101962.69;5092864;28;20118;-65
2023/05/04 04:29:03;;;;;;;16.73;14.02;;;;;;;9.09;65.12;101949.41;5092635;28;20028;-64
2023/05/04 04:31:29;;;;;;;15.98;13.75;;;;;;;9.20;64.57;101954.28;5101574;28;20024;-64
2023/05/04 04:33:55;;;;;;;15.43;13.55;;;;;;;9.24;64.46;101954.13;5093816;28;20031;-64
2023/05/04 04:36:20;;;;;;;14.00;12.63;;;;;;;9.20;64.62;101944.53;5092101;28;20394;-65
2023/05/04 04:38:46;;;;;;;15.75;13.63;;;;;;;8.98;64.79;101939.22;5094033;28;20031;-64
2023/05/04 04:41:11;;;;;;;14.98;13.48;;;;;;;9.00;65.35;101950.63;5094072;28;20435;-64
2023/05/04 04:43:37;;;;;;;16.27;13.30;;;;;;;9.14;65.37;101954.53;5093899;28;20026;-64
2023/05/04 04:46:08;;;;;;;14.43;12.43;;;;;;;9.07;65.51;101954.78;5093386;28;20070;-64
2023/05/04 04:48:38;;;;;;;15.13;12.52;;;;;;;9.18;65.08;101956.16;5101733;28;20110;-65
2023/05/04 04:51:08;;;;;;;;;;;;;;;9.41;63.96;101956.09;5104017;28;20031;-65
2023/05/04 04:53:33;;;;;;;14.32;12.65;;;;;;;9.25;64.99;101945.22;5093678;28;20349;-64
2023/05/04 04:56:01;;;;;;;14.90;13.35;;;;;;;9.24;64.91;101956.78;5093724;28;20059;-65
2023/05/04 04:58:26;;;;;;;14.55;13.02;;;;;;;9.25;64.76;101961.13;5093625;28;20387;-64
2023/05/04 05:00:52;;;;;;;14.88;13.00;;;;;;;9.29;65.00;101957.47;5095137;28;20028;-65
2023/05/04 05:03:17;;;;;;;13.93;12.55;;;;;;;9.36;64.67;101946.59;5095026;28;20441;-64
2023/05/04 05:05:45;;;;;;;13.77;12.55;;;;;;;9.32;64.82;101956.44;5093229;28;20103;-64
2023/05/04 05:08:10;;;;;;;15.48;13.50;;;;;;;9.26;64.81;101952.25;5091702;28;20387;-65
2023/05/04 05:10:38;;;;;;;14.50;12.70;;;;;;;9.34;64.95;101959.91;5092496;28;20028;-65
2023/05/04 05:13:05;;;;;;;15.50;13.88;;;;;;;9.46;64.33;101958.56;5109932;28;20317;-64
2023/05/04 05:15:30;;;;;;;18.60;12.18;;;;;;;9.40;65.07;101957.00;5095043;28;20031;-64
2023/05/04 05:17:56;;;;;;;15.30;13.15;;;;;;;9.62;64.21;101958.78;5091630;28;20115;-64
2023/05/04 05:20:22;;;;;;;17.23;13.15;;;;;;;9.55;64.53;101959.03;5091851;28;20536;-65
2023/05/04 05:22:47;;;;;;;17.08;13.55;;;;;;;9.55;64.32;101963.50;5092877;28;20012;-65
2023/05/04 05:25:13;;;;;;;18.40;13.88;;;;;;;9.57;63.77;101953.69;5092017;28;20028;-64
2023/05/04 05:27:38;;;;;;;24.35;13.98;;;;;;;9.60;63.81;101966.81;5091789;28;20484;-64
2023/05/04 05:30:04;;;;;;;15.75;13.18;;;;;;;9.59;64.32;101964.22;5091882;28;20110;-64
2023/05/04 05:32:33;;;;;;;21.58;13.07;;;;;;;9.71;63.95;101961.94;5098785;28;20047;-64
2023/05/04 05:34:58;;;;;;;17.38;13.48;;;;;;;9.69;63.91;101961.13;5092739;28;20027;-64
2023/05/04 05:37:27;;;;;;;24.95;14.25;;;;;;;9.77;63.68;101964.34;5092074;28;20016;-64
2023/05/04 05:39:52;;;;;;;16.75;13.10;;;;;;;9.86;63.73;101967.56;5091567;28;20156;-65
2023/05/04 05:42:18;;;;;;;20.75;13.25;;;;;;;9.84;63.62;101967.59;5092753;28;20095;-64
2023/05/04 05:44:43;;;;;;;19.48;11.63;;;;;;;9.93;63.50;101964.53;5092594;28;20020;-65
2023/05/04 05:47:11;;;;;;;19.73;13.02;;;;;;;9.99;64.32;101958.09;5094690;28;20031;-65
2023/05/04 05:49:36;;;;;;;20.20;13.60;;;;;;;10.10;63.28;101965.63;5092571;28;20051;-65
2023/05/04 05:52:02;;;;;;;17.75;13.52;;;;;;;10.09;62.91;101962.13;5091815;28;20066;-64
2023/05/04 05:54:30;;;;;;;19.40;12.90;;;;;;;10.14;63.07;101960.09;5092147;28;20376;-64
2023/05/04 05:56:55;;;;;;;19.70;13.45;;;;;;;10.17;63.48;101953.78;5091089;28;20031;-64
2023/05/04 05:59:21;;;;;;;20.33;13.65;;;;;;;10.27;62.82;101954.31;5091007;28;20020;-64
2023/05/04 06:01:46;;;;;;;16.25;13.10;;;;;;;10.39;62.68;101959.09;5093056;28;20048;-64
2023/05/04 06:04:12;;;;;;;17.20;12.32;;;;;;;10.48;62.01;101955.16;5093550;28;20031;-64
2023/05/04 06:06:37;;;;;;;14.48;12.98;;;;;;;10.51;62.07;101947.88;5098403;28;20517;-64
2023/05/04 06:09:04;;;;;;;18.95;12.85;;;;;;;10.39;61.99;101945.78;5109712;28;20023;-65
2023/05/04 06:11:32;;;;;;;21.90;12.95;;;;;;;10.52;61.84;101941.63;5110718;28;20080;-65
2023/05/04 06:14:02;;;;;;;19.33;14.13;;;;;;;10.54;61.90;101936.25;5112862;28;20098;-65
2023/05/04 06:16:27;;;;;;;;;;;;;;;10.75;61.16;101937.06;5111302;28;20051;-65
2023/05/04 06:18:52;;;;;;;20.52;13.13;;;;;;;10.70;61.35;101923.94;5110109;28;19911;-64
2023/05/04 06:21:18;;;;;;;22.33;13.38;;;;;;;10.75;61.18;101921.09;5110550;28;20024;-64
2023/05/04 06:23:43;;;;;;;16.77;13.70;;;;;;;10.74;61.69;101922.03;5112306;28;20020;-64
2023/05/04 06:26:11;;;;;;;14.13;12.02;;;;;;;10.76;60.86;101912.16;5109251;28;20024;-65
2023/05/04 06:28:36;;;;;;;17.13;13.25;;;;;;;10.87;61.96;101920.50;5111019;28;20416;-65
2023/05/04 06:31:02;;;;;;;19.35;13.15;;;;;;;10.89;61.63;101914.19;5112211;28;20035;-64
2023/05/04 06:33:28;;;;;;;17.60;12.85;;;;;;;10.93;60.58;101909.56;5112008;28;20040;-64
2023/05/04 06:35:53;;;;;;;16.27;12.20;;;;;;;11.07;60.08;101915.09;5110733;28;20023;-65
2023/05/04 06:38:19;;;;;;;16.25;12.48;;;;;;;11.16;60.04;101913.81;5111663;28;20071;-65
2023/05/04 06:40:47;;;;;;;15.68;12.38;;;;;;;11.36;59.57;101915.50;5110422;28;20027;-65
2023/05/04 06:43:12;;;;;;;17.70;13.15;;;;;;;11.37;60.03;101910.09;5100380;28;20130;-64
2023/05/04 06:45:38;;;;;;;22.23;11.48;;;;;;;11.50;59.62;101910.34;5090100;28;20182;-64
2023/05/04 06:48:04;;;;;;;19.20;12.68;;;;;;;11.48;59.43;101914.03;5090564;28;20032;-65
2023/05/04 06:50:31;;;;;;;15.10;12.82;;;;;;;11.56;59.21;101903.88;5091703;28;20028;-65
2023/05/04 06:53:07;;;;;;;14.95;12.23;;;;;;;11.67;59.39;101909.47;5091065;28;20028;-65
2023/05/04 06:55:33;;;;;;;14.77;12.18;;;;;;;11.61;59.23;101909.78;5090292;28;20028;-65
2023/05/04 06:57:59;;;;;;;15.88;12.25;;;;;;;11.77;59.23;101907.22;5091798;28;20157;-65
2023/05/04 07:00:24;;;;;;;14.57;13.00;;;;;;;11.79;58.23;101903.56;5091798;28;20040;-64
2023/05/04 07:02:52;;;;;;;21.23;12.73;;;;;;;11.99;58.67;101901.69;5091754;28;20023;-65
2023/05/04 07:05:18;;;;;;;17.25;12.07;;;;;;;11.93;58.22;101886.84;5091781;28;20024;-65
2023/05/04 07:07:44;;;;;;;14.93;12.65;;;;;;;11.95;58.33;101887.66;5089414;28;20213;-64
2023/05/04 07:10:09;;;;;;;13.95;12.07;;;;;;;12.12;57.85;101892.09;5096232;28;20495;-64
2023/05/04 07:12:35;;;;;;;17.40;12.13;;;;;;;12.16;57.58;101882.13;5099176;28;20028;-65
2023/05/04 07:15:00;;;;;;;14.52;11.40;;;;;;;12.26;57.43;101886.91;5091383;28;20012;-65
2023/05/04 07:17:26;;;;;;;15.57;11.80;;;;;;;12.39;57.93;101878.25;5089612;28;20016;-65
2023/05/04 07:19:53;;;;;;;16.45;11.88;;;;;;;12.42;56.52;101875.41;5092332;28;20027;-65
2023/05/04 07:22:21;;;;;;;12.52;11.23;;;;;;;12.59;56.31;101875.34;5093034;28;20439;-65
2023/05/04 07:24:48;;;;;;;20.63;11.10;;;;;;;12.70;56.11;101872.06;5089446;28;20074;-65
2023/05/04 07:27:14;;;;;;;17.80;11.85;;;;;;;13.00;56.00;101868.63;5106448;28;20020;-64
2023/05/04 07:29:40;;;;;;;15.20;11.32;;;;;;;13.17;54.98;101877.38;5092730;28;20482;-65
2023/05/04 07:32:05;;;;;;;15.80;10.90;;;;;;;13.26;54.86;101873.34;5099494;28;20115;-65
2023/05/04 07:34:33;;;;;;;11.52;10.43;;;;;;;13.46;55.15;101871.34;5090540;28;20119;-65
2023/05/04 07:36:58;;;;;;;17.27;11.48;;;;;;;13.50;53.86;101859.50;5088702;28;20026;-65
2023/05/04 07:39:24;;;;;;;12.23;11.02;;;;;;;13.65;54.62;101863.97;5091369;28;20020;-65
2023/05/04 07:41:50;;;;;;;18.65;10.57;;;;;;;13.64;53.91;101867.56;5105371;28;20043;-65
2023/05/04 07:44:16;;;;;;;14.38;10.48;;;;;;;13.66;53.26;101873.69;5099466;28;20059;-65
2023/05/04 07:46:41;;;;;;;15.30;10.95;;;;;;;13.69;53.09;101869.97;5093814;28;20526;-65
2023/05/04 07:49:07;;;;;;;13.88;10.23;;;;;;;13.88;52.63;101867.91;5099376;28;20081;-65
2023/05/04 07:51:35;;;;;;;14.48;11.48;;;;;;;13.94;51.93;101869.34;5102375;28;20038;-69
2023/05/04 07:54:00;;;;;;;14.18;10.90;;;;;;;14.06;52.02;101874.84;5100781;28;20024;-65
2023/05/04 07:56:26;;;;;;;14.38;10.52;;;;;;;14.29;53.07;101869.84;5097589;28;20015;-65
2023/05/04 07:58:51;;;;;;;11.02;9.73;;;;;;;14.36;50.80;101870.34;5092818;28;20021;-65
2023/05/04 08:01:19;;;;;;;16.35;11.52;;;;;;;14.35;50.20;101864.13;5094322;28;20103;-65
2023/05/04 08:03:44;;;;;;;13.48;10.98;;;;;;;14.59;50.33;101858.19;5101580;28;20022;-64
2023/05/04 08:06:10;;;;;;;17.02;10.20;;;;;;;14.69;50.00;101857.53;5100705;28;20024;-65
2023/05/04 08:08:35;;;;;;;12.85;10.25;;;;;;;14.74;50.53;101863.44;5091318;28;20161;-65
2023/05/04 08:11:01;;;;;;;13.18;11.23;;;;;;;14.93;49.19;101852.41;5106783;28;20080;-65
2023/05/04 08:13:26;;;;;;;18.13;10.25;;;;;;;15.05;49.82;101849.88;5091757;28;20394;-65
2023/05/04 08:15:56;;;;;;;11.63;10.45;;;;;;;15.17;49.34;101847.22;5093787;28;20082;-65
2023/05/04 08:18:24;;;;;;;12.45;10.27;;;;;;;15.32;48.84;101848.03;5092626;28;20463;-65
2023/05/04 08:20:50;;;;;;;11.48;10.32;;;;;;;15.42;48.50;101846.47;5090832;28;20020;-65
2023/05/04 08:23:15;;;;;;;14.57;11.13;;;;;;;15.52;49.46;101844.00;5092338;28;22097;-65
2023/05/04 08:25:41;;;;;;;13.55;10.32;;;;;;;15.50;48.33;101843.28;5092169;28;20035;-65
2023/05/04 08:28:06;;;;;;;13.20;9.77;;;;;;;15.37;47.97;101837.88;5093279;28;20525;-65
2023/05/04 08:30:31;;;;;;;19.58;11.30;;;;;;;15.51;48.30;101838.78;5099001;28;20020;-65
2023/05/04 08:32:58;;;;;;;11.05;9.95;;;;;;;15.60;48.26;101835.47;5093451;28;20043;-65
2023/05/04 08:35:26;;;;;;;13.40;9.77;;;;;;;15.69;47.57;101839.38;5092930;28;20085;-65
2023/05/04 08:37:54;;;;;;;11.55;9.65;;;;;;;15.80;47.28;101826.94;5095059;28;20659;-65
2023/05/04 08:40:20;;;;;;;10.85;9.73;;;;;;;16.17;47.67;101829.69;5097341;28;20439;-65
2023/05/04 08:42:49;;;;;;;18.58;11.15;;;;;;;16.15;47.30;101825.41;5093231;28;20048;-65
2023/05/04 08:45:15;;;;;;;20.95;10.18;;;;;;;16.33;47.47;101816.06;5092675;28;20031;-65
2023/05/04 08:47:44;;;;;;;15.93;10.95;;;;;;;16.46;46.65;101811.50;5096760;28;20376;-65
2023/05/04 08:50:10;;;;;;;13.57;10.43;;;;;;;16.63;46.96;101807.59;5092302;28;20024;-65
2023/05/04 08:52:39;;;;;;;14.68;9.98;;;;;;;16.86;46.81;101800.56;5076288;28;20483;-65
2023/05/04 08:55:06;;;;;;;12.93;10.10;;;;;;;16.84;46.42;101790.88;5093030;28;20036;-65
2023/05/04 08:57:32;;;;;;;12.00;9.50;;;;;;;16.96;45.66;101788.13;5091336;28;20050;-64
2023/05/04 08:59:59;;;;;;;11.40;10.20;;;;;;;16.95;44.79;101794.50;5092138;28;20020;-65
2023/05/04 09:02:25;;;;;;;12.80;9.45;;;;;;;17.10;46.09;101780.88;5093170;28;20470;-65
2023/05/04 09:04:52;;;;;;;11.63;10.25;;;;;;;17.25;44.97;101775.19;5074807;28;20416;-65
2023/05/04 09:07:18;;;;;;;15.43;9.27;;;;;;;17.40;44.90;101778.53;5091171;28;20031;-64
2023/05/04 09:09:44;;;;;;;11.00;9.20;;;;;;;17.28;45.27;101779.47;5093161;28;20026;-65
2023/05/04 09:12:12;;;;;;;14.93;9.73;;;;;;;17.48;45.18;101783.31;5091935;28;20028;-65
2023/05/04 09:14:40;;;;;;;14.55;9.80;;;;;;;17.56;44.27;101777.31;5091837;28;20504;-64
2023/05/04 09:17:14;;;;;;;13.45;8.75;;;;;;;17.89;44.59;101779.25;5091353;28;20032;-65
2023/05/04 09:19:42;;;;;;;14.32;9.23;;;;;;;17.94;44.46;101777.03;5093119;28;20030;-65
2023/05/04 09:22:15;;;;;;;14.10;8.52;;;;;;;17.93;43.23;101784.25;5092701;28;20016;-64
2023/05/04 09:24:41;;;;;;;12.75;9.68;;;;;;;18.09;43.04;101780.38;5093014;28;20371;-65
2023/05/04 09:27:12;;;;;;;12.13;9.23;;;;;;;18.16;44.25;101768.13;5092801;28;20028;-65
2023/05/04 09:29:41;;;;;;;10.48;9.30;;;;;;;18.32;42.25;101771.28;5091513;28;20058;-65
2023/05/04 09:32:12;;;;;;;10.18;8.98;;;;;;;18.38;42.59;101775.28;5092239;28;20044;-65
2023/05/04 09:34:49;;;;;;;19.20;9.40;;;;;;;18.72;41.96;101773.41;5091775;28;20024;-65
2023/05/04 09:37:15;;;;;;;16.27;9.02;;;;;;;18.78;42.46;101770.22;5092468;28;20102;-65
2023/05/04 09:39:54;;;;;;;12.00;9.35;;;;;;;18.83;41.93;101769.84;5091462;28;20081;-65
2023/05/04 09:42:27;;;;;;;11.82;9.48;;;;;;;18.77;41.54;101763.13;5091109;28;20043;-65
2023/05/04 09:44:58;;;;;;;13.55;9.25;;;;;;;19.04;41.34;101772.59;5091129;28;20463;-64
2023/05/04 09:47:44;;;;;;;10.52;8.90;;;;;;;19.33;40.67;101767.41;5090778;28;20028;-65
2023/05/04 09:50:16;;;;;;;10.75;9.52;;;;;;;19.42;40.41;101763.09;5092325;28;20036;-65
2023/05/04 09:52:43;;;;;;;10.50;8.65;;;;;;;19.65;40.47;101761.13;5090732;28;20127;-65
2023/05/04 09:55:18;;;;;;;9.35;8.30;;;;;;;19.70;40.90;101743.50;5092945;28;20024;-65
2023/05/04 09:57:45;;;;;;;10.60;8.40;;;;;;;19.80;39.66;101751.69;5092348;28;20111;-65
2023/05/04 10:00:16;;;;;;;11.15;8.30;;;;;;;20.04;39.98;101747.81;5092811;28;20423;-65
2023/05/04 10:02:46;;;;;;;13.57;8.73;;;;;;;20.28;39.17;101747.44;5090928;28;20392;-65
2023/05/04 10:05:16;;;;;;;11.02;9.32;;;;;;;20.09;38.68;101749.09;5092052;28;20057;-65
2023/05/04 10:07:45;;;;;;;12.02;8.25;;;;;;;20.06;39.50;101735.88;5090280;28;20032;-65
2023/05/04 10:10:11;;;;;;;10.35;7.85;;;;;;;20.31;39.37;101730.97;5092357;28;20019;-65
2023/05/04 10:12:37;;;;;;;11.43;8.18;;;;;;;20.43;40.18;101714.47;5074002;28;20031;-65
2023/05/04 10:15:08;;;;;;;11.18;8.05;;;;;;;20.75;38.90;101708.00;5092209;28;20024;-65
2023/05/04 10:17:38;;;;;;;9.95;8.00;;;;;;;21.01;40.25;101696.63;5092158;28;20157;-65
2023/05/04 10:20:35;;;;;;;11.85;8.43;;;;;;;21.24;39.09;101699.84;5092195;28;20036;-65
2023/05/04 10:23:58;;;;;;;10.88;8.25;;;;;;;21.37;38.40;101696.84;5090470;28;20027;-65
2023/05/04 10:26:49;;;;;;;17.20;8.27;;;;;;;21.42;37.76;101687.31;5029722;28;20127;-65
2023/05/04 10:29:27;;;;;;;12.52;7.50;;;;;;;21.65;38.71;101678.78;5029760;28;20021;-65
2023/05/04 10:31:55;;;;;;;12.63;7.13;;;;;;;21.86;37.09;101681.31;5074330;28;20048;-65
2023/05/04 10:34:32;;;;;;;11.47;7.37;;;;;;;21.51;37.73;101669.31;5090523;28;20093;-65
2023/05/04 10:36:58;;;;;;;9.10;7.28;;;;;;;21.77;36.65;101666.78;5090311;28;20755;-65
2023/05/04 10:39:29;;;;;;;10.57;8.13;;;;;;;21.97;37.31;101662.09;5092205;28;20488;-65
2023/05/04 10:42:03;;;;;;;11.68;8.00;;;;;;;22.00;35.37;101659.09;5091813;28;20020;-65
2023/05/04 10:44:31;;;;;;;12.98;7.18;;;;;;;22.16;36.19;101653.03;5091818;28;20179;-65
2023/05/04 10:47:06;;;;;;;14.23;7.68;;;;;;;22.28;34.96;101648.28;5088964;28;20471;-65
2023/05/04 10:49:33;;;;;;;9.85;7.75;;;;;;;22.20;35.00;101649.03;5106452;28;20110;-65
2023/05/04 10:52:09;;;;;;;10.70;7.32;;;;;;;22.32;35.43;101634.25;5079954;28;20457;-65
2023/05/04 10:54:36;;;;;;;9.82;7.30;;;;;;;22.33;34.38;101629.69;5090484;28;20040;-65
2023/05/04 10:57:03;;;;;;;9.55;7.43;;;;;;;22.39;34.67;101612.81;5090300;28;20435;-65
2023/05/04 10:59:29;;;;;;;12.68;7.47;;;;;;;22.49;35.21;101626.28;5103653;28;20470;-65
2023/05/04 11:01:55;;;;;;;9.68;7.20;;;;;;;22.70;33.98;101620.50;5095428;28;20031;-65
2023/05/04 11:04:21;;;;;;;10.00;6.90;;;;;;;22.68;33.47;101609.84;5092120;28;20024;-65
2023/05/04 11:07:01;;;;;;;8.23;6.60;;;;;;;22.84;34.67;101609.94;5095757;28;20067;-65
2023/05/04 11:09:33;;;;;;;9.57;6.55;;;;;;;23.03;33.79;101608.06;5093010;28;20015;-65
2023/05/04 11:11:59;;;;;;;8.75;6.38;;;;;;;23.24;34.07;101600.41;5090061;28;20101;-65
2023/05/04 11:14:26;;;;;;;10.05;6.47;;;;;;;23.19;33.48;101600.03;5093376;28;20038;-65
2023/05/04 11:16:53;;;;;;;7.68;6.88;;;;;;;23.15;33.26;101597.78;5093245;28;20107;-65